Time;durP1;ratioP1;P1;durP2;ratioP2;P2;SDS_P1;SDS_P2;PMS_P1;PMS_P2;Temp;Humidity;BMP_temperature;BMP_pressure;BME280_temperature;BME280_humidity;BME280_pressure;Samples;Min_cycle;Max_cycle;Signal;HPM_P1;HPM_P2
2022/06/09 06:59:53;;;;;;;0.85;0.85;;;17.40;99.90;;;;;;5236330;27;20404;-71
2022/06/09 07:02:26;;;;;;;1.00;1.00;;;17.10;99.90;;;;;;5209200;27;20040;-71
2022/06/09 07:04:57;;;;;;;1.10;1.10;;;17.00;99.90;;;;;;5218831;27;20049;-72
2022/06/09 07:07:34;;;;;;;1.15;1.15;;;17.00;99.90;;;;;;5266701;28;20047;-71
2022/06/09 07:10:09;;;;;;;1.35;1.00;;;17.00;99.90;;;;;;5274825;28;20048;-71
2022/06/09 07:12:44;;;;;;;0.90;0.90;;;17.10;99.90;;;;;;5259810;28;20165;-71
2022/06/09 07:15:20;;;;;;;1.75;1.10;;;17.10;99.90;;;;;;5260483;28;20280;-71
2022/06/09 07:17:54;;;;;;;0.77;0.77;;;17.20;99.90;;;;;;5241982;28;20032;-71
2022/06/09 07:20:28;;;;;;;;;;;17.10;99.90;;;;;;5268528;28;20042;-71
2022/06/09 07:22:59;;;;;;;1.10;1.00;;;17.10;99.90;;;;;;5260084;28;19920;-71
2022/06/09 07:25:33;;;;;;;1.00;1.00;;;17.10;99.90;;;;;;5275399;28;20046;-71
2022/06/09 07:28:07;;;;;;;1.77;1.38;;;17.10;99.90;;;;;;5263687;28;20441;-71
2022/06/09 07:30:42;;;;;;;1.05;1.05;;;17.30;99.90;;;;;;5277142;28;20048;-72
2022/06/09 07:33:19;;;;;;;0.95;0.95;;;17.20;99.90;;;;;;5271207;28;20324;-71
2022/06/09 07:35:53;;;;;;;0.90;0.90;;;17.20;99.90;;;;;;5268303;28;20036;-71
2022/06/09 07:38:38;;;;;;;0.98;0.98;;;17.20;99.90;;;;;;5259757;28;20022;-72
2022/06/09 07:41:14;;;;;;;0.80;0.80;;;17.30;99.90;;;;;;5261417;28;20048;-72
2022/06/09 07:43:50;;;;;;;1.00;1.00;;;17.20;99.90;;;;;;5282704;28;20050;-72
2022/06/09 07:46:29;;;;;;;0.80;0.80;;;17.40;99.90;;;;;;5263566;28;20028;-72
2022/06/09 07:49:02;;;;;;;1.10;1.00;;;17.40;99.90;;;;;;5278124;28;20524;-71
2022/06/09 07:51:40;;;;;;;0.90;0.90;;;17.30;99.90;;;;;;5278842;28;20406;-71
2022/06/09 07:54:15;;;;;;;0.80;0.80;;;17.10;99.90;;;;;;5283179;28;20032;-71
2022/06/09 07:56:49;;;;;;;0.90;0.90;;;17.10;99.90;;;;;;5253750;22;20383;-71
2022/06/09 07:59:31;;;;;;;1.05;1.05;;;17.10;99.90;;;;;;5201905;28;20036;-71
2022/06/09 08:02:10;;;;;;;0.93;0.90;;;17.20;99.90;;;;;;5191020;28;20376;-71
2022/06/09 08:04:49;;;;;;;0.80;0.80;;;17.20;99.90;;;;;;5186585;28;20061;-72
2022/06/09 08:07:21;;;;;;;0.90;0.90;;;17.20;99.90;;;;;;5208043;28;20041;-72
2022/06/09 08:10:01;;;;;;;1.00;1.00;;;17.00;99.90;;;;;;5220586;28;20033;-72
2022/06/09 08:12:39;;;;;;;1.02;1.02;;;16.90;99.90;;;;;;5202350;28;20070;-71
2022/06/09 08:15:18;;;;;;;0.90;0.90;;;16.80;99.90;;;;;;5188305;28;20342;-71
2022/06/09 08:18:00;;;;;;;0.93;0.93;;;16.80;99.90;;;;;;5200822;28;20225;-72
2022/06/09 08:20:41;;;;;;;0.95;0.95;;;16.70;99.90;;;;;;5202109;28;20048;-76
2022/06/09 11:41:25;;;;;;;1.83;1.73;;;18.20;99.90;;;;;;5298840;27;20732;-71
2022/06/09 11:44:19;;;;;;;1.00;1.00;;;18.00;99.90;;;;;;5260129;28;20465;-71
2022/06/09 11:46:55;;;;;;;0.98;0.98;;;17.90;99.90;;;;;;5256215;28;20027;-71
2022/06/09 11:49:33;;;;;;;1.10;1.00;;;18.00;99.90;;;;;;5262964;28;20063;-71
2022/06/09 11:52:19;;;;;;;0.80;0.80;;;18.10;99.90;;;;;;5273514;28;20047;-71
2022/06/09 11:55:04;;;;;;;1.00;0.93;;;18.30;99.90;;;;;;5000365;28;20469;-71
2022/06/09 11:57:52;;;;;;;0.90;0.90;;;18.00;99.90;;;;;;5165443;23;20040;-71
2022/06/09 12:00:29;;;;;;;1.23;1.23;;;18.20;99.90;;;;;;5232284;28;20037;-71
2022/06/09 12:03:25;;;;;;;1.48;1.30;;;18.10;99.90;;;;;;5214500;28;20237;-71
2022/06/09 12:06:35;;;;;;;0.90;0.90;;;18.30;99.90;;;;;;5239084;28;20044;-71
2022/06/09 12:10:53;;;;;;;1.13;1.02;;;18.30;99.90;;;;;;5177430;27;20444;-65
2022/06/09 12:13:43;;;;;;;1.48;1.38;;;18.10;99.90;;;;;;5183939;28;20045;-63
2022/06/09 12:16:59;;;;;;;1.20;1.10;;;18.20;99.90;;;;;;5190657;28;20045;-63
2022/06/09 12:19:49;;;;;;;1.17;1.08;;;18.30;99.90;;;;;;5184508;28;20050;-62
2022/06/09 12:23:32;;;;;;;1.08;1.00;;;18.30;99.90;;;;;;5194507;28;20350;-62
2022/06/09 12:26:09;;;;;;;1.17;1.15;;;18.20;99.90;;;;;;5088327;29;20039;-62
2022/06/09 12:28:52;;;;;;;1.85;1.33;;;18.00;99.90;;;;;;5106914;29;20044;-62
2022/06/09 12:31:36;;;;;;;1.05;1.05;;;18.00;99.90;;;;;;5108418;29;20269;-64
2022/06/09 12:34:13;;;;;;;1.20;1.10;;;18.00;99.90;;;;;;5095127;29;20047;-62
2022/06/09 12:36:56;;;;;;;1.30;1.20;;;18.00;99.90;;;;;;5128781;28;20346;-62
2022/06/09 12:39:41;;;;;;;1.15;1.15;;;17.80;99.90;;;;;;5192069;28;20033;-64
2022/06/09 12:42:23;;;;;;;0.90;0.90;;;17.80;99.90;;;;;;5191734;28;20303;-63
2022/06/09 12:45:12;;;;;;;1.15;1.10;;;17.80;99.90;;;;;;5192573;28;20025;-62
2022/06/09 12:48:06;;;;;;;1.10;1.10;;;17.90;99.90;;;;;;5192154;28;20048;-62
2022/06/09 12:50:51;;;;;;;1.30;1.20;;;17.80;99.90;;;;;;5208129;28;20041;-63
2022/06/09 12:53:35;;;;;;;1.02;1.02;;;17.40;99.90;;;;;;5192322;28;20037;-64
2022/06/09 12:56:55;;;;;;;1.25;1.17;;;17.00;99.90;;;;;;5192060;28;20113;-65
2022/06/09 12:59:32;;;;;;;1.50;1.20;;;16.70;99.90;;;;;;5193649;28;20261;-62
2022/06/09 13:02:29;;;;;;;1.30;1.20;;;16.60;99.90;;;;;;5194840;28;20209;-65
2022/06/09 13:05:12;;;;;;;3.47;1.40;;;16.40;99.90;;;;;;5169867;28;20388;-64
2022/06/09 13:08:18;;;;;;;1.10;1.10;;;16.20;99.90;;;;;;5190972;28;20504;-63
2022/06/09 13:11:00;;;;;;;;;;;16.10;99.90;;;;;;5190682;28;20037;-65
2022/06/09 13:13:49;;;;;;;1.50;1.40;;;16.10;99.90;;;;;;5192818;28;19909;-65
2022/06/09 13:16:30;;;;;;;1.60;1.50;;;16.10;99.90;;;;;;5174597;28;20045;-65
2022/06/09 13:19:05;;;;;;;1.33;1.23;;;16.10;99.90;;;;;;5174708;28;20056;-64
2022/06/09 13:21:41;;;;;;;1.95;1.45;;;16.10;99.90;;;;;;5176458;28;20315;-66
2022/06/09 13:24:38;;;;;;;1.80;1.50;;;16.10;99.90;;;;;;5179618;28;20045;-67
2022/06/09 13:27:20;;;;;;;1.30;1.20;;;16.10;99.90;;;;;;5178587;28;20349;-65
2022/06/09 13:29:55;;;;;;;1.25;1.25;;;16.20;99.90;;;;;;5179038;28;20045;-65
2022/06/09 13:32:36;;;;;;;1.40;1.30;;;16.30;99.90;;;;;;5177678;28;20038;-65
2022/06/09 13:35:28;;;;;;;1.25;1.15;;;16.60;99.90;;;;;;5178310;28;20354;-67
2022/06/09 13:38:33;;;;;;;1.20;1.10;;;17.00;99.90;;;;;;5176856;28;20042;-66
2022/06/09 13:41:25;;;;;;;1.20;1.20;;;17.10;99.90;;;;;;5194093;28;20234;-66
2022/06/09 13:44:11;;;;;;;1.20;1.20;;;17.30;99.90;;;;;;5193855;28;20614;-66
2022/06/09 13:47:07;;;;;;;1.40;1.30;;;17.60;99.90;;;;;;5176737;28;20327;-65
2022/06/09 13:49:47;;;;;;;1.00;1.00;;;17.70;99.90;;;;;;5192535;28;20338;-66
2022/06/09 13:52:33;;;;;;;1.05;1.00;;;17.60;99.90;;;;;;5177053;28;20307;-67
2022/06/09 13:55:16;;;;;;;1.25;1.20;;;17.60;99.90;;;;;;5160656;28;20029;-66
2022/06/09 13:57:52;;;;;;;1.08;1.08;;;17.70;99.90;;;;;;5176430;28;20040;-67
2022/06/09 14:00:32;;;;;;;1.00;1.00;;;17.70;99.90;;;;;;5175430;28;20048;-66
2022/06/09 14:03:11;;;;;;;1.25;1.15;;;17.60;99.90;;;;;;5191375;28;20038;-65
2022/06/09 14:05:57;;;;;;;1.27;1.20;;;17.50;99.90;;;;;;5181431;28;20216;-63
2022/06/09 14:08:39;;;;;;;0.90;0.90;;;17.40;99.90;;;;;;5182739;28;20038;-65
2022/06/09 14:11:31;;;;;;;1.08;1.08;;;17.40;99.90;;;;;;5196442;28;20030;-63
2022/06/09 14:14:07;;;;;;;1.08;1.08;;;17.50;99.90;;;;;;5174588;28;20056;-64
2022/06/09 14:16:51;;;;;;;1.15;1.10;;;17.50;99.90;;;;;;5162186;28;20041;-65
2022/06/09 14:19:25;;;;;;;0.80;0.80;;;17.60;99.90;;;;;;5174292;28;20266;-63
2022/06/09 14:21:59;;;;;;;1.05;1.05;;;17.60;99.90;;;;;;5160062;28;20049;-63
2022/06/09 14:24:30;;;;;;;1.00;1.00;;;17.50;99.90;;;;;;5176504;28;20112;-65
2022/06/09 14:27:07;;;;;;;0.90;0.90;;;17.50;99.90;;;;;;5193738;28;20030;-64
2022/06/09 14:29:40;;;;;;;3.70;1.50;;;17.60;99.90;;;;;;5177729;28;20310;-66
2022/06/09 14:32:20;;;;;;;1.08;1.08;;;17.50;99.90;;;;;;5191737;28;20228;-63
2022/06/09 14:34:54;;;;;;;1.20;1.10;;;17.50;99.90;;;;;;5178028;28;20040;-64
2022/06/09 14:37:26;;;;;;;1.13;1.13;;;17.60;99.90;;;;;;5176497;28;20041;-63
2022/06/09 14:40:01;;;;;;;1.83;1.23;;;17.60;99.90;;;;;;5176374;28;20034;-62
2022/06/09 14:42:32;;;;;;;1.40;1.30;;;17.60;99.90;;;;;;5158802;28;20219;-63
2022/06/09 14:45:04;;;;;;;1.38;1.27;;;17.60;99.90;;;;;;5177276;28;20042;-63
2022/06/09 14:47:41;;;;;;;1.38;1.30;;;17.50;99.90;;;;;;5176390;28;20033;-63
2022/06/09 14:50:24;;;;;;;1.27;1.27;;;17.50;99.90;;;;;;5176928;28;20044;-63
2022/06/09 14:52:58;;;;;;;1.27;1.17;;;17.60;99.90;;;;;;5174298;28;20038;-64
2022/06/09 14:55:34;;;;;;;;;;;17.50;99.90;;;;;;5176389;28;20533;-63
2022/06/09 14:58:20;;;;;;;1.10;1.10;;;17.50;99.90;;;;;;5140199;28;19925;-63
2022/06/09 15:00:56;;;;;;;1.58;1.40;;;17.30;99.90;;;;;;5166879;28;20053;-63
2022/06/09 15:03:30;;;;;;;1.30;1.20;;;17.20;99.90;;;;;;5157695;28;20357;-62
2022/06/09 15:06:01;;;;;;;1.40;1.30;;;17.30;99.90;;;;;;5165405;28;20072;-62
2022/06/09 15:08:35;;;;;;;1.40;1.30;;;17.30;99.90;;;;;;5149399;28;20384;-64
2022/06/09 15:11:11;;;;;;;1.20;1.20;;;17.30;99.90;;;;;;5146204;28;20388;-62
2022/06/09 15:13:42;;;;;;;1.60;1.50;;;17.30;99.90;;;;;;5142477;28;20041;-63
2022/06/09 15:16:16;;;;;;;1.42;1.33;;;17.30;99.90;;;;;;5157463;28;20026;-63
2022/06/09 15:18:50;;;;;;;1.58;1.48;;;17.30;99.90;;;;;;5172077;28;20388;-63
2022/06/09 15:21:22;;;;;;;1.38;1.30;;;17.20;99.90;;;;;;5142523;28;20477;-62
2022/06/09 15:23:55;;;;;;;1.58;1.48;;;17.10;99.90;;;;;;5169941;28;20034;-62
2022/06/09 15:26:31;;;;;;;1.40;1.27;;;17.10;99.90;;;;;;5171412;28;20034;-62
2022/06/09 15:29:03;;;;;;;1.30;1.20;;;17.10;99.90;;;;;;5171303;28;20034;-62
2022/06/09 15:31:35;;;;;;;1.30;1.20;;;17.00;99.90;;;;;;5154916;28;20036;-63
2022/06/09 15:34:06;;;;;;;1.38;1.30;;;17.00;99.90;;;;;;5144095;28;20073;-63
2022/06/09 15:36:46;;;;;;;1.45;1.35;;;17.00;99.90;;;;;;5169475;28;21165;-62
2022/06/09 15:39:18;;;;;;;1.30;1.20;;;17.00;99.90;;;;;;5170528;28;20072;-63
2022/06/09 15:41:50;;;;;;;1.08;1.08;;;17.00;99.90;;;;;;5151201;28;20039;-63
2022/06/09 15:44:22;;;;;;;1.60;1.50;;;17.00;99.90;;;;;;5138820;28;20029;-63
2022/06/09 15:46:56;;;;;;;1.33;1.23;;;17.10;99.90;;;;;;5156256;28;20211;-63
2022/06/09 15:49:31;;;;;;;1.30;1.20;;;17.00;99.90;;;;;;5168509;28;20049;-63
2022/06/09 15:52:06;;;;;;;1.20;1.10;;;16.90;99.90;;;;;;5154150;28;20048;-63
2022/06/09 15:54:38;;;;;;;1.63;1.52;;;16.80;99.90;;;;;;5170383;28;20042;-63
2022/06/09 15:57:12;;;;;;;1.63;1.52;;;16.70;99.90;;;;;;5154200;28;20038;-63
2022/06/09 15:59:44;;;;;;;;;;;16.70;99.90;;;;;;5170012;28;20038;-63
2022/06/09 16:02:15;;;;;;;1.55;1.45;;;16.50;99.90;;;;;;5151985;28;19914;-66
2022/06/09 16:04:47;;;;;;;1.80;1.70;;;16.30;99.90;;;;;;5163745;28;20397;-64
2022/06/09 16:07:22;;;;;;;1.55;1.45;;;16.10;99.90;;;;;;5149085;28;20038;-65
2022/06/09 16:09:54;;;;;;;1.63;1.45;;;16.00;99.90;;;;;;5169661;28;20042;-65
2022/06/09 16:12:27;;;;;;;1.50;1.40;;;16.00;99.90;;;;;;5147729;28;20204;-66
2022/06/09 16:15:02;;;;;;;1.60;1.50;;;16.10;99.90;;;;;;5169664;28;20038;-65
2022/06/09 16:17:42;;;;;;;1.30;1.20;;;16.00;99.90;;;;;;5144507;28;20405;-67
2022/06/09 16:20:23;;;;;;;1.63;1.52;;;16.00;99.90;;;;;;5153077;28;20064;-65
2022/06/09 16:22:55;;;;;;;1.58;1.48;;;15.90;99.90;;;;;;5153878;28;20056;-65
2022/06/09 16:25:27;;;;;;;1.55;1.45;;;15.80;99.90;;;;;;5121627;28;20064;-65
2022/06/09 16:28:04;;;;;;;1.42;1.33;;;15.80;99.90;;;;;;5165570;28;20035;-64
2022/06/09 16:30:45;;;;;;;4.05;1.42;;;15.80;99.90;;;;;;5153185;28;20041;-64
2022/06/09 16:33:18;;;;;;;1.73;1.27;;;15.70;99.90;;;;;;5170784;28;20049;-64
2022/06/09 16:35:53;;;;;;;1.80;1.70;;;15.70;99.90;;;;;;5155301;28;20269;-66
2022/06/09 16:38:24;;;;;;;1.80;1.70;;;15.70;99.90;;;;;;5169123;28;20068;-64
2022/06/09 16:40:56;;;;;;;1.55;1.45;;;15.80;99.90;;;;;;5169983;28;20057;-64
2022/06/09 16:43:28;;;;;;;1.60;1.50;;;15.80;99.90;;;;;;5170887;28;20219;-64
2022/06/09 16:45:59;;;;;;;1.80;1.70;;;15.80;99.90;;;;;;5154163;28;20061;-68
2022/06/09 16:48:31;;;;;;;1.90;1.80;;;15.80;99.90;;;;;;5170726;28;20301;-66
2022/06/09 16:51:06;;;;;;;3.65;1.70;;;15.80;99.90;;;;;;5169988;28;20046;-66
2022/06/09 16:53:48;;;;;;;1.40;1.30;;;15.90;99.90;;;;;;5170696;28;20054;-67
2022/06/09 16:56:25;;;;;;;1.92;1.25;;;15.90;99.90;;;;;;5185916;28;20038;-64
2022/06/09 16:58:57;;;;;;;3.42;2.88;;;15.90;99.90;;;;;;5173869;28;20257;-66
2022/06/09 17:01:28;;;;;;;4.35;1.67;;;15.90;99.90;;;;;;5158587;28;20300;-66
2022/06/09 17:04:01;;;;;;;1.70;1.60;;;15.90;99.90;;;;;;5157019;28;20038;-66
2022/06/09 17:06:38;;;;;;;1.48;1.38;;;15.90;99.90;;;;;;5162566;28;20065;-66
2022/06/09 17:09:12;;;;;;;1.27;1.20;;;15.90;99.90;;;;;;5169989;28;20054;-67
2022/06/09 17:11:44;;;;;;;1.70;1.60;;;15.90;99.90;;;;;;5177683;28;20034;-66
2022/06/09 17:14:16;;;;;;;1.60;1.50;;;15.90;99.90;;;;;;5173940;28;20052;-66
2022/06/09 17:17:06;;;;;;;1.30;1.30;;;15.90;99.90;;;;;;5157506;28;20215;-67
2022/06/09 17:19:39;;;;;;;1.27;1.17;;;16.00;99.90;;;;;;5144749;28;20026;-70
2022/06/09 17:22:16;;;;;;;1.50;1.40;;;16.00;99.90;;;;;;5131192;28;20055;-67
2022/06/09 17:24:48;;;;;;;1.35;1.25;;;15.90;99.90;;;;;;5157217;28;20046;-66
2022/06/09 17:27:20;;;;;;;1.65;1.55;;;15.90;99.90;;;;;;5158620;28;20030;-66
2022/06/09 17:29:54;;;;;;;1.38;1.27;;;15.90;99.90;;;;;;5172670;28;20366;-65
2022/06/09 17:32:25;;;;;;;1.67;1.45;;;15.90;99.90;;;;;;5168722;28;20045;-69
2022/06/09 17:34:57;;;;;;;1.40;1.30;;;15.90;99.90;;;;;;5168426;28;20056;-66
2022/06/09 17:37:28;;;;;;;1.33;1.27;;;15.80;99.90;;;;;;5171889;28;20373;-65
2022/06/09 17:40:03;;;;;;;1.50;1.40;;;15.80;99.90;;;;;;5157523;28;20057;-66
2022/06/09 17:42:38;;;;;;;1.35;1.25;;;15.80;99.90;;;;;;5171065;28;20034;-68
2022/06/09 17:45:12;;;;;;;1.40;1.30;;;15.80;99.90;;;;;;5156798;28;20038;-67
2022/06/09 17:47:48;;;;;;;1.58;1.48;;;15.80;99.90;;;;;;5162404;28;20083;-65
2022/06/09 17:50:31;;;;;;;1.75;1.65;;;15.80;99.90;;;;;;5166116;28;20254;-66
2022/06/09 17:53:07;;;;;;;2.30;2.10;;;15.70;99.90;;;;;;5173955;28;20034;-65
2022/06/09 17:55:39;;;;;;;1.40;1.30;;;15.80;99.90;;;;;;5162915;28;20053;-65
2022/06/09 17:58:12;;;;;;;2.00;1.80;;;15.70;99.90;;;;;;5167960;28;20042;-65
2022/06/09 18:00:51;;;;;;;2.00;1.77;;;15.60;99.90;;;;;;5171021;28;20264;-64
2022/06/09 18:03:23;;;;;;;1.52;1.42;;;15.60;99.90;;;;;;5173670;28;20029;-66
2022/06/09 18:06:05;;;;;;;1.88;1.77;;;15.60;99.90;;;;;;5167815;28;20062;-64
2022/06/09 18:08:40;;;;;;;1.73;1.63;;;15.60;99.90;;;;;;5155456;28;20197;-64
2022/06/09 18:11:20;;;;;;;2.33;2.13;;;15.70;99.90;;;;;;5171404;28;20033;-63
2022/06/09 18:13:51;;;;;;;3.33;1.88;;;15.70;99.90;;;;;;5173617;28;20044;-65
2022/06/09 18:16:26;;;;;;;3.03;2.00;;;15.60;99.90;;;;;;5177271;28;20235;-66
2022/06/09 18:18:57;;;;;;;1.98;1.88;;;15.60;99.90;;;;;;5176732;28;20315;-68
2022/06/09 18:21:30;;;;;;;2.88;2.58;;;15.60;99.90;;;;;;5148009;28;20239;-65
2022/06/09 18:24:01;;;;;;;5.47;1.92;;;15.60;99.90;;;;;;5148728;28;20344;-64
2022/06/09 18:26:33;;;;;;;2.90;2.60;;;15.60;99.90;;;;;;5149409;28;20038;-65
2022/06/09 18:29:08;;;;;;;3.05;2.80;;;15.70;99.90;;;;;;5155793;28;20052;-66
2022/06/09 18:31:50;;;;;;;4.13;3.03;;;15.70;99.90;;;;;;5157581;28;20036;-64
2022/06/09 18:34:29;;;;;;;3.47;2.60;;;15.80;99.90;;;;;;5153763;28;20033;-65
2022/06/09 18:37:02;;;;;;;2.47;2.28;;;15.80;99.90;;;;;;5173053;28;20062;-66
2022/06/09 18:39:40;;;;;;;2.72;2.20;;;15.80;99.90;;;;;;5152118;28;20040;-66
2022/06/09 18:42:14;;;;;;;2.67;1.80;;;15.80;99.90;;;;;;5156990;28;20030;-66
2022/06/09 18:44:45;;;;;;;2.70;2.08;;;15.80;99.90;;;;;;5169394;28;20044;-65
2022/06/09 18:47:25;;;;;;;3.35;2.38;;;15.80;99.90;;;;;;5147157;28;20381;-65
2022/06/09 18:49:59;;;;;;;3.40;2.50;;;15.80;99.90;;;;;;5156314;28;20042;-66
2022/06/09 18:52:33;;;;;;;2.28;2.13;;;15.80;99.90;;;;;;5170407;28;20048;-65
2022/06/09 18:55:11;;;;;;;2.15;1.95;;;15.70;99.90;;;;;;5157571;28;20040;-65
2022/06/09 18:57:45;;;;;;;2.60;2.40;;;15.50;99.90;;;;;;5169768;28;20047;-67
2022/06/09 19:00:20;;;;;;;3.10;2.25;;;15.40;99.90;;;;;;5156089;28;20034;-67
2022/06/09 19:02:54;;;;;;;2.90;2.35;;;15.30;99.90;;;;;;5171258;28;20034;-65
2022/06/09 19:05:29;;;;;;;2.50;2.13;;;15.20;99.90;;;;;;5162383;28;20104;-64
2022/06/09 19:08:01;;;;;;;2.10;1.90;;;15.20;99.90;;;;;;5151657;28;20301;-63
2022/06/09 19:10:36;;;;;;;2.40;2.15;;;15.10;99.90;;;;;;5171488;28;20073;-64
2022/06/09 19:13:19;;;;;;;3.25;2.55;;;15.00;99.90;;;;;;5155046;28;20049;-64
2022/06/09 19:15:52;;;;;;;4.00;2.88;;;15.00;99.90;;;;;;5167700;28;20345;-65
2022/06/09 19:18:25;;;;;;;2.38;2.17;;;15.10;99.90;;;;;;5149316;28;20049;-65
2022/06/09 19:20:57;;;;;;;4.18;3.03;;;15.10;99.90;;;;;;5172458;28;20566;-66
2022/06/09 19:23:28;;;;;;;2.85;2.40;;;15.10;99.90;;;;;;5170321;28;20230;-65
2022/06/09 19:26:05;;;;;;;2.90;2.10;;;15.10;99.90;;;;;;5170145;28;20064;-65
2022/06/09 19:28:40;;;;;;;7.15;2.40;;;15.00;99.90;;;;;;5166017;28;20038;-65
2022/06/09 19:31:16;;;;;;;2.95;2.13;;;15.00;99.90;;;;;;5150693;28;20039;-65
2022/06/09 19:33:51;;;;;;;3.25;2.00;;;15.00;99.90;;;;;;5172531;28;20251;-65
2022/06/09 19:36:29;;;;;;;1.90;1.77;;;14.90;99.90;;;;;;5172117;28;20046;-66
2022/06/09 19:39:05;;;;;;;1.80;1.70;;;14.90;99.90;;;;;;5168814;28;20042;-66
2022/06/09 19:41:42;;;;;;;2.00;1.90;;;14.90;99.90;;;;;;5155467;28;20041;-65
2022/06/09 19:44:19;;;;;;;2.65;1.98;;;14.90;99.90;;;;;;5155349;28;20042;-67
2022/06/09 19:46:53;;;;;;;2.10;1.67;;;14.90;99.90;;;;;;5154018;28;20065;-66
2022/06/09 19:49:25;;;;;;;2.30;1.83;;;14.90;99.90;;;;;;5170780;28;20056;-66
2022/06/09 19:52:02;;;;;;;1.90;1.50;;;14.90;99.90;;;;;;5155256;28;20068;-67
2022/06/09 19:54:39;;;;;;;1.60;1.50;;;14.90;99.90;;;;;;5156153;28;20042;-66
2022/06/09 19:57:17;;;;;;;1.70;1.60;;;14.90;99.90;;;;;;5165107;28;20056;-67
2022/06/09 19:59:49;;;;;;;1.63;1.52;;;14.90;99.90;;;;;;5166738;28;20048;-67
2022/06/09 20:02:23;;;;;;;1.27;1.25;;;14.90;99.90;;;;;;5169081;28;20152;-66
2022/06/09 20:04:58;;;;;;;1.45;1.35;;;14.80;99.90;;;;;;5159364;28;20423;-65
2022/06/09 20:07:32;;;;;;;1.63;1.52;;;14.90;99.90;;;;;;5142208;28;20505;-68
2022/06/09 20:10:15;;;;;;;2.47;1.40;;;14.80;99.90;;;;;;5156360;28;20046;-68
2022/06/09 20:12:51;;;;;;;3.05;1.52;;;14.90;99.90;;;;;;5152111;28;20042;-68
2022/06/09 20:15:26;;;;;;;1.48;1.38;;;14.90;99.90;;;;;;5170771;28;20034;-68
2022/06/09 20:18:03;;;;;;;;;;;14.90;99.90;;;;;;5138728;28;20048;-68
2022/06/09 20:20:48;;;;;;;1.40;1.30;;;14.90;99.90;;;;;;5154650;28;19920;-68
2022/06/09 20:23:21;;;;;;;1.33;1.25;;;15.00;99.90;;;;;;5152026;28;20034;-65
2022/06/09 20:26:05;;;;;;;1.48;1.38;;;15.10;99.90;;;;;;5167580;28;20047;-66
2022/06/09 20:28:40;;;;;;;1.40;1.30;;;15.10;99.90;;;;;;5149745;28;20038;-65
2022/06/09 20:31:21;;;;;;;2.30;1.10;;;15.10;99.90;;;;;;5154762;28;20045;-68
2022/06/09 20:34:01;;;;;;;1.50;1.40;;;15.10;99.90;;;;;;5175606;28;20042;-68
2022/06/09 20:36:33;;;;;;;1.50;1.40;;;15.10;99.90;;;;;;5153093;28;20029;-67
2022/06/09 20:39:12;;;;;;;1.50;1.40;;;15.10;99.90;;;;;;5172779;28;20200;-69
2022/06/09 20:41:44;;;;;;;1.50;1.40;;;15.10;99.90;;;;;;5159289;28;20056;-67
2022/06/09 20:44:18;;;;;;;1.60;1.50;;;15.10;99.90;;;;;;5175612;28;20258;-64
2022/06/09 20:46:54;;;;;;;1.65;1.55;;;15.10;99.90;;;;;;5175756;28;20053;-69
2022/06/09 20:49:28;;;;;;;1.60;1.50;;;15.10;99.90;;;;;;5157215;28;20469;-66
2022/06/09 20:52:02;;;;;;;;;;;15.00;99.90;;;;;;5174974;28;20057;-63
2022/06/09 20:54:33;;;;;;;1.63;1.52;;;15.10;99.90;;;;;;5177729;28;19924;-66
2022/06/09 20:57:06;;;;;;;1.50;1.40;;;15.10;99.90;;;;;;5159998;28;20046;-66
2022/06/09 20:59:37;;;;;;;1.42;1.33;;;15.10;99.90;;;;;;5156653;28;20068;-68
2022/06/09 21:02:09;;;;;;;2.33;1.52;;;15.10;99.90;;;;;;5175110;28;20065;-65
2022/06/09 21:04:44;;;;;;;4.18;2.40;;;15.10;99.90;;;;;;5152107;28;20058;-69
2022/06/09 21:07:21;;;;;;;1.90;1.70;;;15.10;99.90;;;;;;5158172;28;20046;-66
2022/06/09 21:09:55;;;;;;;1.40;1.27;;;15.20;99.90;;;;;;5174077;28;20045;-67
2022/06/09 21:18:16;;;;;;;1.67;1.58;;;15.20;99.90;;;;;;5159271;28;20038;-64
2022/06/09 21:20:48;;;;;;;2.30;2.05;;;15.10;99.90;;;;;;5158098;28;20034;-66
2022/06/09 21:23:24;;;;;;;2.45;1.88;;;15.10;99.90;;;;;;5174434;28;20042;-65
2022/06/09 21:26:01;;;;;;;1.73;1.63;;;15.00;99.90;;;;;;5173465;28;20045;-64
2022/06/09 21:28:36;;;;;;;1.70;1.60;;;15.00;99.90;;;;;;5159104;28;20570;-67
2022/06/09 21:31:09;;;;;;;;;;;15.00;99.90;;;;;;5170769;28;20035;-64
2022/06/09 21:33:42;;;;;;;1.80;1.70;;;15.00;99.90;;;;;;5139348;28;19925;-64
2022/06/09 21:36:20;;;;;;;2.03;1.83;;;15.00;99.90;;;;;;5170520;28;20044;-64
2022/06/09 21:38:54;;;;;;;1.85;1.73;;;14.90;99.90;;;;;;5173781;28;20042;-65
2022/06/09 21:41:28;;;;;;;1.52;1.42;;;14.90;99.90;;;;;;5155625;28;20066;-63
2022/06/09 21:44:05;;;;;;;1.75;1.60;;;15.00;99.90;;;;;;5166260;28;20038;-68
2022/06/09 21:46:45;;;;;;;1.85;1.75;;;15.00;99.90;;;;;;5158595;28;20030;-67
2022/06/09 21:49:24;;;;;;;2.05;1.70;;;14.90;99.90;;;;;;5157146;28;20045;-64
2022/06/09 21:51:58;;;;;;;2.72;2.05;;;14.90;99.90;;;;;;5158806;28;20050;-67
2022/06/09 21:54:32;;;;;;;1.90;1.77;;;14.90;99.90;;;;;;5173377;28;20022;-63
2022/06/09 21:57:07;;;;;;;2.65;1.88;;;14.90;99.90;;;;;;5157592;28;20038;-66
2022/06/09 21:59:39;;;;;;;1.95;1.85;;;14.90;99.90;;;;;;5142833;28;20382;-64
2022/06/09 22:02:13;;;;;;;2.10;1.60;;;14.90;99.90;;;;;;5158892;28;20487;-64
2022/06/09 22:04:48;;;;;;;1.98;1.83;;;14.90;99.90;;;;;;5167367;28;20073;-64
2022/06/09 22:07:19;;;;;;;1.75;1.65;;;14.90;99.90;;;;;;5167407;28;20034;-65
2022/06/09 22:09:58;;;;;;;3.72;2.25;;;14.90;99.90;;;;;;5173058;28;20046;-63
2022/06/09 22:12:29;;;;;;;3.10;2.15;;;14.90;99.90;;;;;;5172850;28;20476;-65
2022/06/09 22:15:07;;;;;;;2.20;2.00;;;14.90;99.90;;;;;;5158335;28;20072;-63
2022/06/09 22:17:47;;;;;;;1.75;1.63;;;14.90;99.90;;;;;;5176064;28;20038;-63
2022/06/09 22:20:27;;;;;;;2.20;1.70;;;15.00;99.90;;;;;;5160397;28;20353;-64
2022/06/09 22:23:01;;;;;;;3.47;1.73;;;15.00;99.90;;;;;;5175382;28;20038;-64
2022/06/09 22:25:40;;;;;;;2.50;1.83;;;15.10;99.90;;;;;;5171346;28;20041;-64
2022/06/09 22:28:15;;;;;;;1.58;1.48;;;15.00;99.90;;;;;;5173496;28;20046;-64
2022/06/09 22:30:49;;;;;;;2.10;1.90;;;15.00;99.90;;;;;;5173036;28;20038;-65
2022/06/09 22:33:24;;;;;;;1.95;1.85;;;15.00;99.90;;;;;;5173426;28;20369;-63
2022/06/09 22:35:56;;;;;;;;;;;15.00;99.90;;;;;;5158993;28;20038;-63
2022/06/09 22:38:38;;;;;;;2.17;1.85;;;15.00;99.90;;;;;;5172771;28;19918;-64
2022/06/09 22:41:09;;;;;;;1.75;1.48;;;14.90;99.90;;;;;;5168185;28;20056;-66
2022/06/09 22:43:45;;;;;;;2.28;1.90;;;14.90;99.90;;;;;;5173370;28;20027;-67
2022/06/09 22:46:17;;;;;;;2.42;2.20;;;14.90;99.90;;;;;;5173149;28;20054;-64
2022/06/09 22:48:50;;;;;;;1.67;1.55;;;14.90;99.90;;;;;;5150382;28;20038;-67
2022/06/09 22:51:23;;;;;;;1.85;1.73;;;14.90;99.90;;;;;;5172504;28;20347;-64
2022/06/09 22:53:55;;;;;;;2.53;2.33;;;14.90;99.90;;;;;;5170100;28;20038;-63
2022/06/09 22:56:28;;;;;;;2.67;2.20;;;14.90;99.90;;;;;;5156381;28;20041;-63
2022/06/09 22:59:06;;;;;;;2.10;1.90;;;14.90;99.90;;;;;;5173111;28;20054;-63
2022/06/09 23:01:38;;;;;;;2.30;2.10;;;14.80;99.90;;;;;;5163679;28;20472;-64
2022/06/09 23:04:12;;;;;;;1.95;1.77;;;14.70;99.90;;;;;;5169228;28;20041;-64
2022/06/09 23:06:46;;;;;;;2.80;1.98;;;14.70;99.90;;;;;;5140141;28;20034;-64
2022/06/09 23:09:25;;;;;;;2.25;1.85;;;14.70;99.90;;;;;;5169199;28;20042;-65
2022/06/09 23:12:02;;;;;;;1.92;1.80;;;14.60;99.90;;;;;;5148163;28;20042;-64
2022/06/09 23:14:33;;;;;;;2.05;1.83;;;14.50;99.90;;;;;;5154721;28;20044;-65
2022/06/09 23:17:11;;;;;;;3.85;2.42;;;14.40;99.90;;;;;;5156743;28;20068;-64
2022/06/09 23:19:52;;;;;;;1.92;1.80;;;14.40;99.90;;;;;;5170472;28;20046;-64
2022/06/09 23:22:25;;;;;;;2.35;2.15;;;14.40;99.90;;;;;;5171713;28;20042;-64
2022/06/09 23:24:59;;;;;;;2.17;1.98;;;14.40;99.90;;;;;;5157207;28;20060;-65
2022/06/09 23:27:34;;;;;;;2.05;1.85;;;14.30;99.90;;;;;;5172431;28;20235;-65
2022/06/09 23:30:09;;;;;;;4.07;2.35;;;14.40;99.90;;;;;;5139127;28;20052;-65
2022/06/09 23:32:42;;;;;;;2.65;2.45;;;14.30;99.90;;;;;;5172158;28;20042;-64
2022/06/09 23:35:20;;;;;;;5.07;2.83;;;14.40;99.90;;;;;;5166956;28;20085;-63
2022/06/09 23:37:58;;;;;;;9.20;2.90;;;14.30;99.90;;;;;;5154011;28;20344;-65
2022/06/09 23:40:43;;;;;;;3.25;2.13;;;14.30;99.90;;;;;;5142294;28;20054;-65
2022/06/09 23:43:32;;;;;;;3.25;2.97;;;14.30;99.90;;;;;;5129037;28;20250;-65
2022/06/09 23:46:07;;;;;;;4.32;2.53;;;14.40;99.90;;;;;;5151929;28;20038;-65
2022/06/09 23:48:44;;;;;;;2.60;2.28;;;14.40;99.90;;;;;;5154026;28;20056;-67
2022/06/09 23:51:20;;;;;;;2.28;2.08;;;14.40;99.90;;;;;;5152494;28;20286;-66
2022/06/09 23:53:51;;;;;;;2.42;2.22;;;14.40;99.90;;;;;;5135354;28;20027;-68
2022/06/09 23:56:25;;;;;;;3.63;2.42;;;14.40;99.90;;;;;;5151919;28;20049;-68
2022/06/09 23:58:57;;;;;;;2.90;2.58;;;14.40;99.90;;;;;;5151653;28;20042;-68
